Time;durP1;ratioP1;P1;durP2;ratioP2;P2;SDS_P1;SDS_P2;PMS_P1;PMS_P2;Temp;Humidity;BMP_temperature;BMP_pressure;BME280_temperature;BME280_humidity;BME280_pressure;Samples;Min_cycle;Max_cycle;Signal;HPM_P1;HPM_P2
2022/07/09 00:00:47;;;;;;;8.15;2.50;;;;;;;15.28;66.92;100963.19;2114818;82;21540;-82
2022/07/09 00:03:48;;;;;;;10.25;2.60;;;;;;;15.30;66.94;100965.19;2110126;82;22206;-82
2022/07/09 00:06:49;;;;;;;5.83;1.87;;;;;;;15.31;66.89;100966.84;2181909;80;21036;-83
2022/07/09 00:09:51;;;;;;;9.70;3.00;;;;;;;15.33;66.85;100967.51;2175794;80;21039;-82
2022/07/09 00:12:52;;;;;;;6.30;2.27;;;;;;;15.34;66.76;100966.48;2162612;80;21066;-82
2022/07/09 00:15:53;;;;;;;8.85;2.50;;;;;;;15.35;66.74;100974.85;2190935;80;21040;-83
2022/07/09 00:18:54;;;;;;;8.30;2.22;;;;;;;15.34;66.72;100965.15;2190986;80;21490;-83
2022/07/09 00:21:55;;;;;;;6.10;2.30;;;;;;;15.27;66.72;100965.55;2195169;80;21016;-83
2022/07/09 00:24:57;;;;;;;4.12;1.90;;;;;;;15.22;66.70;100966.89;2099149;83;21394;-82
2022/07/09 00:28:00;;;;;;;12.82;2.70;;;;;;;15.20;66.86;100966.26;2105598;83;22295;-83
2022/07/09 00:31:01;;;;;;;5.65;2.42;;;;;;;15.19;66.93;100976.60;2112124;83;21033;-82
2022/07/09 00:34:02;;;;;;;6.75;2.42;;;;;;;15.22;66.97;100964.73;2106321;83;21004;-83
2022/07/09 00:37:04;;;;;;;7.03;2.05;;;;;;;15.24;67.04;100968.89;2176016;80;21046;-82
2022/07/09 00:40:08;;;;;;;8.15;2.72;;;;;;;15.23;67.10;100963.70;2180216;80;21027;-82
2022/07/09 00:43:22;;;;;;;8.08;2.70;;;;;;;15.19;67.22;100964.58;2176951;80;21005;-82
2022/07/09 00:46:23;;;;;;;7.22;2.80;;;;;;;15.20;67.27;100964.92;2180411;80;21064;-83
2022/07/09 00:49:30;;;;;;;7.78;2.87;;;;;;;15.20;67.35;100967.59;2179934;80;21669;-82
2022/07/09 00:52:34;;;;;;;5.15;2.20;;;;;;;15.21;67.55;100963.08;2187680;80;21046;-83
2022/07/09 00:55:38;;;;;;;9.48;2.47;;;;;;;15.18;67.45;100960.75;2159537;80;21461;-83
2022/07/09 00:58:42;;;;;;;4.65;1.90;;;;;;;15.16;67.62;100960.92;2171785;80;20986;-82
2022/07/09 01:01:43;;;;;;;8.13;3.02;;;;;;;15.16;67.64;100958.24;2169814;80;21339;-83
2022/07/09 01:04:44;;;;;;;8.40;2.27;;;;;;;15.18;67.77;100950.89;2171957;80;20978;-82
2022/07/09 01:07:46;;;;;;;10.60;2.58;;;;;;;15.18;67.72;100956.23;2158955;80;21037;-82
2022/07/09 01:10:51;;;;;;;5.53;2.33;;;;;;;15.23;67.89;100949.00;2163913;80;21013;-82
2022/07/09 01:13:54;;;;;;;7.35;2.70;;;;;;;15.24;67.94;100951.52;2175439;80;21198;-83
2022/07/09 01:17:03;;;;;;;10.72;2.72;;;;;;;15.27;67.87;100944.98;2171636;80;21086;-82
2022/07/09 01:20:08;;;;;;;4.92;2.20;;;;;;;15.27;67.90;100936.97;2173207;80;21042;-82
2022/07/09 01:23:10;;;;;;;6.55;1.70;;;;;;;15.31;68.16;100941.44;2180143;80;21450;-83
2022/07/09 01:26:12;;;;;;;6.83;1.82;;;;;;;15.32;68.24;100941.79;2177732;80;21063;-83
2022/07/09 01:29:13;;;;;;;6.28;2.27;;;;;;;15.34;68.37;100938.41;2178819;80;21369;-83
2022/07/09 01:32:17;;;;;;;5.78;2.15;;;;;;;15.37;68.38;100938.05;2185723;80;21049;-82
2022/07/09 01:35:19;;;;;;;7.65;2.50;;;;;;;15.38;68.49;100937.89;2180817;80;21389;-82
2022/07/09 01:38:20;;;;;;;6.92;2.10;;;;;;;15.35;68.42;100924.87;2177102;80;20991;-82
2022/07/09 01:41:21;;;;;;;3.67;2.08;;;;;;;15.33;68.45;100927.40;2097305;83;21069;-82
2022/07/09 01:44:22;;;;;;;4.85;1.90;;;;;;;15.24;68.48;100919.95;2125578;82;20986;-82
2022/07/09 01:47:23;;;;;;;6.58;2.60;;;;;;;15.19;68.54;100918.30;2082220;83;21045;-82
2022/07/09 01:50:24;;;;;;;4.58;1.70;;;;;;;15.06;68.53;100902.83;2085877;83;21109;-82
2022/07/09 01:53:25;;;;;;;4.33;1.77;;;;;;;15.09;68.61;100914.54;2086805;83;21007;-82
2022/07/09 01:56:26;;;;;;;3.72;2.00;;;;;;;15.05;68.54;100917.22;2085645;83;21008;-82
2022/07/09 01:59:27;;;;;;;6.85;2.52;;;;;;;15.00;68.53;100911.56;2135506;82;21049;-82
2022/07/09 02:02:28;;;;;;;6.30;2.20;;;;;;;14.94;68.40;100903.75;2134402;82;20947;-82
2022/07/09 02:05:29;;;;;;;7.58;2.25;;;;;;;14.88;68.33;100903.62;2132654;82;20974;-82
2022/07/09 02:08:30;;;;;;;11.18;2.55;;;;;;;14.77;68.22;100909.69;2136214;82;21623;-82
2022/07/09 02:11:31;;;;;;;4.78;1.80;;;;;;;14.67;68.24;100901.08;2137862;82;21055;-82
2022/07/09 02:14:34;;;;;;;8.10;1.60;;;;;;;14.56;68.33;100896.95;2131956;82;21449;-82
2022/07/09 02:17:35;;;;;;;6.83;1.92;;;;;;;14.51;68.37;100894.44;2138004;82;21073;-82
2022/07/09 02:20:36;;;;;;;4.05;2.00;;;;;;;14.47;68.55;100890.43;2123853;81;21049;-82
2022/07/09 02:23:37;;;;;;;4.42;2.33;;;;;;;14.41;68.57;100893.80;2118583;82;21660;-82
2022/07/09 02:26:39;;;;;;;9.83;2.50;;;;;;;14.38;68.82;100895.48;2120079;82;21117;-82
2022/07/09 02:29:40;;;;;;;9.05;2.55;;;;;;;14.40;68.94;100884.96;2123568;82;21522;-83
2022/07/09 02:32:41;;;;;;;5.33;2.30;;;;;;;14.40;68.99;100881.46;2136853;82;21362;-83
2022/07/09 02:35:42;;;;;;;4.08;2.20;;;;;;;14.40;69.20;100884.96;2135471;81;21108;-83
2022/07/09 02:38:45;;;;;;;5.25;2.15;;;;;;;14.41;69.33;100884.45;2148026;81;21061;-83
2022/07/09 02:41:46;;;;;;;7.08;2.45;;;;;;;14.41;69.51;100879.94;2122254;81;21029;-82
2022/07/09 02:44:47;;;;;;;5.05;1.98;;;;;;;14.42;69.54;100886.96;2148107;81;20977;-82
2022/07/09 02:47:48;;;;;;;4.87;2.02;;;;;;;14.44;69.75;100888.94;2144271;81;21045;-82
2022/07/09 02:50:54;;;;;;;6.90;2.25;;;;;;;14.46;69.80;100889.60;2120391;82;20962;-83
2022/07/09 02:53:55;;;;;;;4.90;2.40;;;;;;;14.43;69.97;100883.28;2151192;81;21459;-82
2022/07/09 02:56:57;;;;;;;7.62;2.33;;;;;;;14.46;70.31;100880.26;2146754;81;20991;-82
2022/07/09 02:59:59;;;;;;;6.33;2.22;;;;;;;14.45;70.39;100877.78;2155312;81;21002;-82
2022/07/09 03:03:00;;;;;;;8.28;2.05;;;;;;;14.45;70.66;100872.44;2145748;81;20994;-82
2022/07/09 03:06:07;;;;;;;4.05;2.05;;;;;;;14.50;70.68;100868.72;2139318;81;21048;-82
2022/07/09 03:09:10;;;;;;;7.85;2.60;;;;;;;14.52;71.00;100865.41;2133882;81;21076;-82
2022/07/09 03:12:11;;;;;;;7.62;2.25;;;;;;;14.62;71.03;100867.88;2145956;81;21041;-82
2022/07/09 03:15:14;;;;;;;4.92;2.30;;;;;;;14.67;71.17;100859.67;2148229;81;21061;-82
2022/07/09 03:18:15;;;;;;;5.87;2.25;;;;;;;14.73;71.10;100865.64;2134707;81;21651;-82
2022/07/09 03:21:17;;;;;;;6.25;2.30;;;;;;;14.75;71.16;100860.97;2150519;81;21093;-82
2022/07/09 03:24:19;;;;;;;3.65;2.08;;;;;;;14.75;71.12;100859.63;2147389;81;21105;-83
2022/07/09 03:27:20;;;;;;;3.80;2.00;;;;;;;14.75;71.17;100862.78;2144269;81;21660;-83
2022/07/09 03:30:23;;;;;;;6.65;2.35;;;;;;;14.80;71.28;100864.42;2147232;81;21064;-83
2022/07/09 03:33:24;;;;;;;6.25;2.62;;;;;;;14.84;71.20;100851.53;2147398;81;21437;-82
2022/07/09 03:36:25;;;;;;;4.90;2.10;;;;;;;14.93;71.22;100850.50;2146310;81;21046;-82
2022/07/09 03:39:26;;;;;;;9.75;2.65;;;;;;;15.02;71.16;100849.42;2130197;81;21088;-83
2022/07/09 03:42:27;;;;;;;5.65;2.65;;;;;;;15.10;71.24;100854.72;2144526;81;21041;-82
2022/07/09 03:45:28;;;;;;;5.53;2.58;;;;;;;15.12;71.11;100850.03;2150340;81;20946;-82
2022/07/09 03:48:33;;;;;;;4.80;1.92;;;;;;;15.20;71.25;100838.42;2148568;81;21367;-83
2022/07/09 03:51:34;;;;;;;8.23;2.17;;;;;;;15.46;71.33;100851.42;2129093;81;21006;-82
2022/07/09 03:54:35;;;;;;;8.58;2.70;;;;;;;15.78;71.16;100841.45;2145857;81;21804;-82
2022/07/09 03:57:36;;;;;;;5.47;2.30;;;;;;;15.95;70.63;100843.44;2118090;81;21484;-83
2022/07/09 04:00:37;;;;;;;5.70;1.92;;;;;;;16.22;70.57;100834.77;2127088;82;21081;-83
2022/07/09 04:03:38;;;;;;;5.87;2.37;;;;;;;16.84;69.00;100830.77;2128126;81;21058;-83
2022/07/09 04:06:40;;;;;;;8.60;2.72;;;;;;;16.84;69.00;100830.77;2141978;81;21037;-83
2022/07/09 04:09:41;;;;;;;8.63;2.58;;;;;;;16.83;69.09;100844.34;2149800;81;21880;-83
2022/07/09 04:12:42;;;;;;;5.97;2.27;;;;;;;16.97;68.95;100837.59;2146277;81;21012;-83
2022/07/09 04:15:43;;;;;;;10.32;2.87;;;;;;;16.97;68.47;100836.25;2142499;81;20972;-83
2022/07/09 04:18:44;;;;;;;7.83;1.98;;;;;;;17.23;68.37;100834.34;2148170;81;21503;-83
2022/07/09 04:21:45;;;;;;;7.72;2.30;;;;;;;17.65;67.87;100827.73;2142921;81;21521;-83
2022/07/09 04:24:46;;;;;;;4.80;2.10;;;;;;;18.15;67.58;100832.51;2127585;81;21033;-82
2022/07/09 04:27:47;;;;;;;8.48;2.55;;;;;;;18.56;66.49;100831.14;2131029;81;21054;-84
2022/07/09 04:30:49;;;;;;;6.10;2.83;;;;;;;18.95;66.21;100830.11;2143131;81;21086;-84
2022/07/09 04:33:57;;;;;;;5.17;1.95;;;;;;;19.35;64.02;100832.85;2149318;81;20985;-84
2022/07/09 04:36:59;;;;;;;6.50;2.27;;;;;;;19.34;63.49;100830.66;2139304;81;21034;-84
2022/07/09 04:40:00;;;;;;;3.95;2.15;;;;;;;19.16;63.72;100833.97;2135940;82;21084;-84
2022/07/09 04:43:01;;;;;;;6.12;2.30;;;;;;;19.21;63.53;100830.67;2137952;82;21088;-84
2022/07/09 04:46:02;;;;;;;5.85;2.40;;;;;;;19.18;63.08;100831.09;2121309;82;20994;-84
2022/07/09 04:49:03;;;;;;;6.60;2.52;;;;;;;18.72;62.57;100831.27;2127860;81;21008;-83
2022/07/09 04:52:06;;;;;;;5.35;2.75;;;;;;;18.57;62.80;100831.44;2143288;81;21052;-84
2022/07/09 04:55:10;;;;;;;10.15;2.47;;;;;;;18.53;62.99;100832.06;2145443;81;21017;-84
2022/07/09 04:58:11;;;;;;;5.70;2.30;;;;;;;18.69;63.00;100829.51;2142118;81;21651;-85
2022/07/09 05:01:11;;;;;;;4.42;2.00;;;;;;;18.81;62.81;100826.59;2119742;81;21037;-84
2022/07/09 05:04:12;;;;;;;7.97;2.58;;;;;;;18.90;62.74;100832.08;2137065;81;21043;-84
2022/07/09 05:07:13;;;;;;;6.70;2.42;;;;;;;19.09;62.48;100828.27;2135555;81;21136;-84
2022/07/09 05:10:15;;;;;;;3.20;2.15;;;;;;;19.30;62.28;100827.26;2144209;81;21055;-85
2022/07/09 05:13:16;;;;;;;5.65;2.30;;;;;;;19.41;62.15;100827.98;2139563;81;21011;-84
2022/07/09 05:16:17;;;;;;;3.85;2.50;;;;;;;19.16;60.80;100832.63;2142682;81;21040;-84
2022/07/09 05:19:18;;;;;;;5.37;2.40;;;;;;;18.84;61.51;100837.42;2118156;81;20995;-84
2022/07/09 05:22:19;;;;;;;4.78;2.45;;;;;;;18.49;61.64;100823.55;2140949;81;21055;-84
2022/07/09 05:25:20;;;;;;;5.25;2.52;;;;;;;18.12;61.79;100835.08;2137292;81;21536;-84
2022/07/09 05:28:21;;;;;;;6.58;2.33;;;;;;;17.86;62.17;100830.39;2144739;81;21023;-83
2022/07/09 05:31:22;;;;;;;5.42;2.60;;;;;;;17.70;62.64;100838.72;2138578;81;21576;-84
2022/07/09 05:34:27;;;;;;;6.78;2.83;;;;;;;17.74;62.80;100832.44;2138487;81;21026;-83
2022/07/09 05:37:28;;;;;;;5.78;2.70;;;;;;;17.85;63.08;100834.12;2145464;81;21080;-84
2022/07/09 05:40:29;;;;;;;9.70;3.27;;;;;;;18.22;63.37;100837.94;2143869;81;21055;-83
2022/07/09 05:43:30;;;;;;;8.18;2.52;;;;;;;18.49;62.84;100836.17;2141829;81;21571;-84
2022/07/09 05:46:31;;;;;;;4.42;2.42;;;;;;;18.60;62.48;100831.03;2130845;81;21508;-84
2022/07/09 05:49:34;;;;;;;5.65;2.70;;;;;;;18.62;62.54;100825.47;2096921;83;20991;-84
2022/07/09 05:52:35;;;;;;;8.65;2.40;;;;;;;18.60;62.17;100831.03;2116348;82;21049;-84
2022/07/09 05:55:38;;;;;;;6.15;2.47;;;;;;;18.60;61.96;100835.59;2121734;82;21019;-84
2022/07/09 05:58:40;;;;;;;6.72;2.62;;;;;;;18.69;62.24;100826.30;2118529;82;21109;-84
2022/07/09 06:01:42;;;;;;;5.70;2.37;;;;;;;18.80;62.14;100825.73;2122183;82;21049;-84
2022/07/09 06:04:43;;;;;;;4.80;2.52;;;;;;;18.98;61.77;100829.20;2115929;82;21033;-84
2022/07/09 06:07:45;;;;;;;4.33;2.60;;;;;;;19.03;61.57;100821.35;2115351;82;21015;-84
2022/07/09 06:10:47;;;;;;;5.08;2.95;;;;;;;19.08;61.42;100818.03;2120417;82;21015;-84
2022/07/09 06:13:48;;;;;;;6.80;2.55;;;;;;;19.19;61.33;100813.91;2117891;82;21063;-85
2022/07/09 06:16:49;;;;;;;4.87;2.65;;;;;;;19.44;61.52;100811.42;2116608;82;21041;-83
2022/07/09 06:19:50;;;;;;;8.38;3.08;;;;;;;19.99;61.45;100809.78;2118171;82;20998;-79
2022/07/09 06:22:51;;;;;;;7.00;2.60;;;;;;;20.57;60.87;100801.17;2121334;82;21448;-78
2022/07/09 06:25:52;;;;;;;4.75;2.40;;;;;;;20.83;59.21;100795.30;2120840;82;21082;-77
2022/07/09 06:28:53;;;;;;;4.62;2.20;;;;;;;21.03;59.15;100791.97;2120149;82;21056;-78
2022/07/09 06:31:59;;;;;;;5.03;2.37;;;;;;;21.38;59.04;100792.83;2120910;82;21080;-81
2022/07/09 06:34:57;;;;;;;5.33;2.55;;;;;;;21.71;58.17;100786.30;2117601;82;21620;-80
2022/07/09 06:38:00;;;;;;;9.33;2.83;;;;;;;21.79;57.38;100794.08;2125714;82;21041;-85
2022/07/09 06:41:02;;;;;;;4.42;2.60;;;;;;;21.91;57.69;100793.65;2123767;82;21112;-83
2022/07/09 06:44:03;;;;;;;9.03;2.62;;;;;;;22.15;56.50;100795.12;2122586;82;21028;-85
2022/07/09 06:47:06;;;;;;;6.55;2.80;;;;;;;22.07;56.22;100792.20;2122798;82;21432;-87
2022/07/09 06:50:09;;;;;;;7.12;2.30;;;;;;;21.75;56.12;100794.77;2124195;82;21039;-82
2022/07/09 06:53:10;;;;;;;6.55;2.60;;;;;;;21.51;56.33;100798.62;2116395;82;20987;-81
2022/07/09 06:56:11;;;;;;;5.47;2.58;;;;;;;21.52;56.36;100792.72;2122056;82;21057;-84
2022/07/09 06:59:12;;;;;;;3.83;2.45;;;;;;;21.53;56.39;100789.78;2121159;82;21052;-80
2022/07/09 07:02:19;;;;;;;4.67;2.20;;;;;;;21.77;56.43;100788.09;2125160;82;21057;-83
2022/07/09 07:05:17;;;;;;;5.65;2.80;;;;;;;22.05;56.48;100786.75;2124941;82;21048;-82
2022/07/09 07:08:19;;;;;;;4.17;2.27;;;;;;;22.66;56.12;100780.33;2124745;82;21636;-82
2022/07/09 07:11:20;;;;;;;8.20;2.33;;;;;;;23.15;55.22;100770.77;2120679;82;21032;-83
2022/07/09 07:14:21;;;;;;;4.67;1.95;;;;;;;23.37;54.16;100761.01;2119989;82;20994;-84
2022/07/09 07:17:21;;;;;;;5.50;1.92;;;;;;;23.60;53.04;100771.53;2124731;82;21116;-86
2022/07/09 07:20:24;;;;;;;5.40;1.87;;;;;;;22.98;51.43;100769.28;2125787;82;21004;-85
2022/07/09 07:23:25;;;;;;;3.80;1.77;;;;;;;22.44;52.12;100771.92;2122601;82;21128;-84
2022/07/09 07:26:29;;;;;;;3.70;1.87;;;;;;;22.27;51.35;100758.72;2097744;82;21063;-85
2022/07/09 07:29:36;;;;;;;2.98;1.65;;;;;;;22.34;51.02;100757.59;2127159;82;21069;-80
2022/07/09 07:32:39;;;;;;;4.62;1.50;;;;;;;22.36;51.19;100756.02;2130194;82;21024;-86
2022/07/09 07:35:40;;;;;;;6.72;1.80;;;;;;;22.29;49.74;100756.09;2121464;82;21636;-84
2022/07/09 07:38:44;;;;;;;3.37;1.67;;;;;;;22.51;50.75;100756.95;2118934;82;21071;-84
2022/07/09 07:41:46;;;;;;;4.40;1.85;;;;;;;22.76;49.57;100758.96;2109850;82;21066;-84
2022/07/09 07:44:47;;;;;;;4.33;1.57;;;;;;;23.17;49.88;100753.74;2110136;82;21588;-84
2022/07/09 07:47:48;;;;;;;2.95;1.57;;;;;;;23.58;48.68;100748.73;2111396;82;21052;-81
2022/07/09 07:50:49;;;;;;;6.58;1.77;;;;;;;23.67;48.17;100753.25;2113319;82;21130;-75
2022/07/09 07:53:50;;;;;;;6.03;1.60;;;;;;;23.71;47.91;100754.47;2112790;82;21007;-79
2022/07/09 07:56:51;;;;;;;4.10;1.67;;;;;;;23.55;47.68;100750.56;2111409;82;21452;-80
2022/07/09 07:59:52;;;;;;;4.42;1.70;;;;;;;22.99;47.45;100762.80;2115905;82;20983;-80
2022/07/09 08:02:54;;;;;;;4.65;1.57;;;;;;;22.57;47.46;100758.73;2111664;82;21545;-79
2022/07/09 08:05:56;;;;;;;2.72;1.30;;;;;;;22.24;47.45;100761.35;2113010;82;21692;-81
2022/07/09 08:08:57;;;;;;;5.20;1.55;;;;;;;22.54;48.06;100760.55;2109330;82;21048;-83
2022/07/09 08:11:59;;;;;;;5.20;1.77;;;;;;;23.16;47.10;100754.81;2114160;82;21114;-79
2022/07/09 08:15:00;;;;;;;1.32;1.22;;;;;;;23.58;45.84;100750.09;2111429;82;21066;-82
2022/07/09 08:18:01;;;;;;;2.33;1.22;;;;;;;23.89;45.41;100748.06;2116083;82;21004;-81
2022/07/09 08:21:02;;;;;;;2.37;1.42;;;;;;;23.58;44.35;100755.51;2117220;82;21432;-80
2022/07/09 08:24:05;;;;;;;3.05;1.65;;;;;;;23.98;44.52;100747.16;2115194;82;21009;-80
2022/07/09 08:27:08;;;;;;;4.60;1.50;;;;;;;24.07;43.66;100747.88;2114667;82;21054;-80
2022/07/09 08:30:12;;;;;;;5.35;1.70;;;;;;;24.03;43.44;100746.73;2114960;82;21083;-81
2022/07/09 08:33:14;;;;;;;4.92;1.90;;;;;;;24.09;43.73;100753.07;2112978;82;20996;-80
2022/07/09 08:36:17;;;;;;;4.70;1.47;;;;;;;23.81;42.43;100746.55;2112325;82;21609;-80
2022/07/09 08:39:18;;;;;;;4.10;1.80;;;;;;;23.54;43.61;100742.66;2113372;82;21056;-81
2022/07/09 08:42:19;;;;;;;5.70;2.02;;;;;;;23.85;43.31;100741.46;2123305;82;21512;-81
2022/07/09 08:45:27;;;;;;;2.50;1.20;;;;;;;24.34;43.79;100734.58;2121043;82;21103;-81
2022/07/09 08:48:34;;;;;;;3.55;1.22;;;;;;;24.47;42.62;100728.08;2119361;82;20994;-81
2022/07/09 08:51:44;;;;;;;3.37;1.90;;;;;;;24.63;41.55;100735.93;2117396;82;21389;-81
2022/07/09 08:54:45;;;;;;;2.70;1.50;;;;;;;24.69;40.98;100724.63;2116666;82;20986;-78
2022/07/09 08:57:48;;;;;;;3.30;1.57;;;;;;;24.84;40.76;100727.61;2115154;82;20963;-82
2022/07/09 09:00:51;;;;;;;5.20;1.90;;;;;;;24.75;41.02;100723.13;2119864;82;20962;-81
2022/07/09 09:03:52;;;;;;;4.47;1.35;;;;;;;24.89;40.26;100726.34;2121627;82;20974;-81
2022/07/09 09:06:53;;;;;;;5.37;1.90;;;;;;;25.01;40.48;100727.61;2114022;82;21057;-81
2022/07/09 09:09:54;;;;;;;3.47;1.75;;;;;;;25.04;40.62;100723.86;2111728;82;21065;-81
2022/07/09 09:13:00;;;;;;;3.95;1.92;;;;;;;25.21;40.35;100717.08;2121279;82;21519;-81
2022/07/09 09:16:10;;;;;;;3.60;2.05;;;;;;;25.16;40.79;100717.54;2119850;82;21083;-81
2022/07/09 09:19:11;;;;;;;5.40;1.92;;;;;;;25.56;40.39;100714.56;2110776;82;21028;-81
2022/07/09 09:22:18;;;;;;;25.00;15.80;;;;;;;25.71;39.89;100711.23;2088749;82;20976;-81
2022/07/09 09:25:23;;;;;;;12.20;5.62;;;;;;;25.68;39.82;100709.84;2122133;82;21086;-81
2022/07/09 09:28:24;;;;;;;8.25;3.58;;;;;;;25.72;39.74;100715.59;2115553;82;22396;-81
2022/07/09 09:31:28;;;;;;;17.37;6.92;;;;;;;25.64;39.57;100707.87;2115288;82;20999;-81
2022/07/09 09:34:29;;;;;;;23.18;4.53;;;;;;;25.76;39.62;100707.20;2118532;82;21547;-81
2022/07/09 09:37:31;;;;;;;5.47;1.70;;;;;;;26.15;39.50;100701.70;2168553;80;21004;-81
2022/07/09 09:40:32;;;;;;;3.87;1.30;;;;;;;26.02;38.42;100702.13;2160445;80;21056;-81
2022/07/09 09:43:36;;;;;;;1.70;1.22;;;;;;;25.66;37.59;100697.59;2189999;80;21011;-82
2022/07/09 09:46:42;;;;;;;5.67;1.32;;;;;;;25.21;37.37;100702.14;2179994;80;21001;-81
2022/07/09 09:49:44;;;;;;;2.80;1.30;;;;;;;24.95;38.17;100704.17;2180817;80;21503;-81
2022/07/09 09:52:52;;;;;;;6.87;1.80;;;;;;;24.74;38.31;100686.19;2178574;80;21039;-81
2022/07/09 09:55:54;;;;;;;3.72;1.42;;;;;;;24.85;38.23;100681.75;2177803;80;21048;-81
2022/07/09 09:59:01;;;;;;;7.75;1.70;;;;;;;24.89;38.23;100687.50;2177546;80;21533;-81
2022/07/09 10:02:12;;;;;;;4.40;1.65;;;;;;;24.89;37.78;100681.56;2183495;80;21087;-81
2022/07/09 10:05:14;;;;;;;3.80;1.57;;;;;;;24.93;38.69;100682.70;2175290;80;21109;-81
2022/07/09 10:08:15;;;;;;;3.85;1.30;;;;;;;25.21;38.83;100678.25;2180344;80;21023;-82
2022/07/09 10:11:17;;;;;;;4.03;1.60;;;;;;;25.41;38.84;100671.73;2178235;80;21005;-82
2022/07/09 10:14:32;;;;;;;6.95;1.70;;;;;;;25.53;38.48;100663.98;2177500;80;20992;-81
2022/07/09 10:17:41;;;;;;;6.10;1.60;;;;;;;25.26;38.16;100665.56;2179031;80;21047;-81
2022/07/09 10:20:45;;;;;;;2.95;1.72;;;;;;;24.94;38.04;100665.87;2184160;80;21598;-81
2022/07/09 10:23:50;;;;;;;3.37;1.60;;;;;;;24.85;38.30;100664.11;2186301;80;20966;-82
2022/07/09 10:26:52;;;;;;;3.62;1.67;;;;;;;25.04;38.25;100660.06;2180792;80;20972;-81
2022/07/09 10:30:02;;;;;;;3.90;1.40;;;;;;;25.35;38.66;100661.88;2175314;80;21063;-81
2022/07/09 10:33:12;;;;;;;;;;;;;;;25.38;38.07;100654.58;2178952;80;21102;-81
2022/07/09 10:36:17;;;;;;;3.90;1.57;;;;;;;25.28;38.22;100651.72;2177190;80;20161;-81
2022/07/09 10:39:18;;;;;;;3.62;1.50;;;;;;;25.53;37.72;100649.05;2182594;80;21088;-81
2022/07/09 10:42:25;;;;;;;3.15;1.55;;;;;;;25.83;38.28;100635.84;2183901;80;21287;-81
2022/07/09 10:45:48;;;;;;;3.92;1.57;;;;;;;25.84;37.27;100636.13;2162110;80;21039;-81
2022/07/09 10:48:49;;;;;;;2.33;1.30;;;;;;;25.76;36.71;100624.86;2087259;84;21056;-81
2022/07/09 10:51:56;;;;;;;2.58;1.50;;;;;;;25.63;37.07;100622.02;2086801;84;21088;-81
2022/07/09 10:55:02;;;;;;;2.62;1.50;;;;;;;25.57;36.77;100640.16;2074688;84;21469;-81
2022/07/09 10:58:07;;;;;;;2.08;1.35;;;;;;;25.53;36.36;100630.84;2081618;84;21076;-82
2022/07/09 11:01:08;;;;;;;4.30;1.47;;;;;;;25.70;36.64;100637.56;2078302;84;21087;-81
2022/07/09 11:04:16;;;;;;;4.03;1.35;;;;;;;25.82;36.65;100626.55;2077701;84;21505;-82
2022/07/09 11:07:28;;;;;;;1.80;1.32;;;;;;;25.79;35.71;100626.55;2074205;84;21038;-82
2022/07/09 11:10:32;;;;;;;2.65;1.25;;;;;;;25.62;36.38;100619.84;2078783;84;21040;-80
2022/07/09 11:13:36;;;;;;;2.55;1.55;;;;;;;25.70;36.25;100626.15;2078880;84;21075;-81
2022/07/09 11:16:39;;;;;;;4.90;1.40;;;;;;;25.56;35.39;100629.52;2080629;84;21568;-81
2022/07/09 11:19:41;;;;;;;6.53;1.65;;;;;;;25.43;36.10;100627.48;2076203;84;20985;-82
2022/07/09 11:22:52;;;;;;;3.12;1.50;;;;;;;25.42;36.23;100619.58;2086170;84;21081;-81
2022/07/09 11:25:52;;;;;;;2.05;1.37;;;;;;;25.60;37.42;100620.63;2079217;84;21029;-81
2022/07/09 11:28:55;;;;;;;3.37;1.45;;;;;;;25.94;36.54;100619.92;2034246;86;21096;-81
2022/07/09 11:31:58;;;;;;;3.33;1.50;;;;;;;25.88;36.37;100620.95;2036369;85;21396;-81
2022/07/09 11:35:01;;;;;;;4.10;1.98;;;;;;;25.88;36.50;100618.24;2039864;85;21069;-82
2022/07/09 11:38:06;;;;;;;4.58;1.32;;;;;;;25.84;36.08;100619.81;2035637;85;21059;-82
2022/07/09 11:41:08;;;;;;;5.80;1.60;;;;;;;25.72;36.56;100615.04;2032627;86;21096;-82
2022/07/09 11:44:21;;;;;;;5.28;1.67;;;;;;;25.38;37.04;100617.09;2033645;85;21005;-82
2022/07/09 11:47:41;;;;;;;3.42;1.70;;;;;;;25.13;37.01;100610.23;2078771;84;21116;-81
2022/07/09 11:50:45;;;;;;;6.00;1.82;;;;;;;24.90;37.33;100605.84;2078721;84;21072;-81
2022/07/09 11:53:52;;;;;;;4.78;1.60;;;;;;;25.03;38.02;100590.56;2076254;84;21069;-82
2022/07/09 11:56:53;;;;;;;4.03;1.80;;;;;;;25.04;38.02;100605.77;2080218;84;21032;-81
2022/07/09 11:59:54;;;;;;;4.28;1.98;;;;;;;25.21;38.21;100609.01;2076431;84;21029;-81
2022/07/09 12:03:04;;;;;;;3.87;1.90;;;;;;;25.18;38.23;100609.52;2075227;84;21076;-80
2022/07/09 12:06:05;;;;;;;4.45;1.85;;;;;;;24.87;38.26;100600.10;2090166;84;21062;-82
2022/07/09 12:09:06;;;;;;;2.98;2.00;;;;;;;24.51;38.57;100605.80;2037131;85;21035;-81
2022/07/09 12:12:09;;;;;;;5.50;2.10;;;;;;;24.37;39.10;100601.20;2043454;85;21021;-82
2022/07/09 12:15:11;;;;;;;3.27;1.92;;;;;;;24.20;39.03;100613.13;2006332;87;21017;-81
2022/07/09 12:18:12;;;;;;;4.15;1.92;;;;;;;24.25;40.06;100602.37;2077561;84;21107;-80
2022/07/09 12:21:13;;;;;;;4.08;2.40;;;;;;;24.40;40.08;100598.54;2076476;84;21056;-80
2022/07/09 12:24:15;;;;;;;3.83;2.10;;;;;;;24.66;39.92;100601.68;2078490;84;21040;-80
2022/07/09 12:27:16;;;;;;;4.50;2.25;;;;;;;24.87;39.54;100595.49;2078142;84;21095;-80
2022/07/09 12:30:20;;;;;;;8.38;2.05;;;;;;;24.75;39.96;100594.24;2079521;84;21031;-81
2022/07/09 12:33:23;;;;;;;6.62;2.27;;;;;;;24.46;39.70;100590.80;2078824;84;21081;-81
2022/07/09 12:36:24;;;;;;;3.62;2.27;;;;;;;24.07;39.61;100598.80;2075714;84;21560;-82
2022/07/09 12:39:25;;;;;;;3.92;2.40;;;;;;;23.80;40.03;100589.11;2079684;84;21018;-81
2022/07/09 12:42:27;;;;;;;6.05;2.80;;;;;;;23.89;40.32;100589.00;2076493;84;20978;-82
2022/07/09 12:45:28;;;;;;;5.05;3.17;;;;;;;24.00;40.51;100584.59;2077036;84;21017;-82
2022/07/09 12:48:29;;;;;;;4.17;3.10;;;;;;;23.94;39.69;100584.22;2081284;84;21080;-79
2022/07/09 12:51:30;;;;;;;4.62;3.37;;;;;;;23.87;40.12;100585.70;2080244;84;21087;-82
2022/07/09 12:54:31;;;;;;;5.22;3.35;;;;;;;23.78;40.50;100593.13;2083075;84;21001;-81
2022/07/09 12:57:34;;;;;;;4.33;3.42;;;;;;;23.89;40.75;100586.83;2048672;84;21052;-81
2022/07/09 13:00:35;;;;;;;5.62;3.98;;;;;;;24.10;41.07;100579.36;2078504;84;21496;-81
2022/07/09 13:03:36;;;;;;;10.18;3.75;;;;;;;24.49;41.06;100582.70;2083427;84;21018;-82
2022/07/09 13:06:43;;;;;;;7.70;3.70;;;;;;;24.53;40.50;100571.66;2079211;84;21076;-81
2022/07/09 13:09:45;;;;;;;7.90;4.28;;;;;;;24.67;40.76;100569.42;2082897;84;21056;-81
2022/07/09 13:12:47;;;;;;;4.83;3.33;;;;;;;24.73;39.89;100571.95;2079364;84;21084;-81
2022/07/09 13:15:51;;;;;;;4.62;3.70;;;;;;;24.66;39.43;100565.05;2081222;84;21020;-81
2022/07/09 13:18:54;;;;;;;4.62;3.70;;;;;;;24.39;39.54;100566.53;2079291;84;21693;-81
2022/07/09 13:21:57;;;;;;;3.77;3.47;;;;;;;24.05;39.94;100575.73;2080445;84;21127;-80
2022/07/09 13:24:58;;;;;;;3.75;3.27;;;;;;;23.96;40.36;100569.87;2081203;84;21032;-80
2022/07/09 13:27:59;;;;;;;4.80;3.70;;;;;;;23.88;40.26;100568.41;2057187;84;21100;-81
2022/07/09 13:31:00;;;;;;;5.08;3.40;;;;;;;23.67;40.27;100566.34;2076059;84;21463;-81
2022/07/09 13:34:01;;;;;;;6.47;4.53;;;;;;;23.30;40.18;100569.95;2077430;84;21353;-81
2022/07/09 13:37:04;;;;;;;5.50;4.15;;;;;;;22.86;40.67;100556.82;2082717;84;21056;-81
2022/07/09 13:40:10;;;;;;;7.45;4.55;;;;;;;22.49;41.38;100565.72;2082992;84;21354;-81
2022/07/09 13:43:11;;;;;;;4.70;4.22;;;;;;;22.34;42.02;100571.06;2081476;84;21051;-82
2022/07/09 13:46:12;;;;;;;7.22;4.20;;;;;;;22.26;42.56;100566.00;2083351;84;21041;-81
2022/07/09 13:49:14;;;;;;;6.72;4.67;;;;;;;22.18;42.64;100556.06;2079997;84;21064;-81
2022/07/09 13:52:16;;;;;;;4.35;3.75;;;;;;;22.10;43.12;100562.58;2077224;84;21028;-82
2022/07/09 13:55:18;;;;;;;6.25;3.50;;;;;;;22.09;43.27;100548.25;2080869;84;21051;-81
2022/07/09 13:58:19;;;;;;;7.58;4.12;;;;;;;21.99;43.41;100545.81;2080812;84;21040;-81
2022/07/09 14:01:20;;;;;;;5.85;3.60;;;;;;;21.89;43.49;100559.37;2078724;84;21063;-81
2022/07/09 14:04:21;;;;;;;5.60;3.20;;;;;;;21.78;43.64;100553.41;2079070;84;21527;-81
2022/07/09 14:07:22;;;;;;;5.00;3.80;;;;;;;21.70;44.09;100560.48;2079778;84;21032;-82